Herrera, Argentina
Current Conditions -  °F | °C
As of 11:00 AM on Thursday 18 Dec 2014 (Local Time) from SANT Reporting Station
Broken Clouds Broken Clouds  
Wind Chill: 26°   Ceiling: 2500
Heat Index: 27°   Visibility: 6mi
Dew Point: 18°   Wind: 3mph
Humidity: 61%   Direction: 50°NE
Pressure: 30"   Gusts: NA
Location:  28.48°S, 63.07°W
Report Text: SANT 181400Z 05003KT 9999 BKN025 SCT10026/18 Q1016
Loading
Personal Weather Stations






























Interactive Weather Map New forecast layout! Learn more

10-Day Weather Forecast

Advertisements
Track Severe Weather on mobile